createdAt,value
2022-08-16T00:01:26.615Z,86.10
2022-08-16T00:04:05.221Z,86.10
2022-08-16T00:06:33.526Z,86.30
2022-08-16T00:09:01.460Z,86.40
2022-08-16T00:11:29.490Z,86.60
2022-08-16T00:13:57.752Z,86.80
2022-08-16T00:17:01.262Z,87.20
2022-08-16T00:19:22.830Z,87.40
2022-08-16T00:21:53.310Z,87.70
2022-08-16T00:24:31.218Z,87.80
2022-08-16T00:27:02.374Z,88.00
2022-08-16T00:29:30.594Z,88.10
2022-08-16T00:32:05.490Z,88.10
2022-08-16T00:34:45.132Z,88.20
2022-08-16T00:37:24.387Z,88.20
2022-08-16T00:39:57.784Z,88.40
2022-08-16T00:42:29.744Z,88.80
2022-08-16T00:45:06.481Z,89.10
2022-08-16T00:47:37.888Z,89.20
2022-08-16T00:50:11.462Z,89.80
2022-08-16T00:52:50.393Z,90.10
2022-08-16T00:55:19.619Z,90.20
2022-08-16T00:57:58.722Z,90.50
2022-08-16T01:00:29.131Z,90.80
2022-08-16T01:02:59.588Z,90.80
2022-08-16T01:05:29.971Z,91.20
2022-08-16T01:08:00.992Z,90.80
2022-08-16T01:10:33.543Z,91.00
2022-08-16T01:13:07.867Z,91.20
2022-08-16T01:15:43.386Z,91.10
2022-08-16T01:18:39.950Z,91.20
2022-08-16T01:21:15.608Z,91.30
2022-08-16T01:24:02.209Z,91.30
2022-08-16T01:26:34.515Z,91.30
2022-08-16T01:29:09.973Z,91.30
2022-08-16T01:31:42.804Z,91.60
2022-08-16T01:34:22.801Z,91.70
2022-08-16T01:37:00.315Z,91.60
2022-08-16T01:39:35.129Z,91.70
2022-08-16T01:42:04.587Z,92.10
2022-08-16T01:44:41.428Z,92.10
2022-08-16T01:47:11.884Z,92.20
2022-08-16T01:49:45.801Z,92.40
2022-08-16T01:52:30.693Z,92.40
2022-08-16T01:55:00.406Z,92.60
2022-08-16T01:57:31.467Z,92.70
2022-08-16T02:00:00.014Z,93.10
2022-08-16T02:02:29.082Z,93.00
2022-08-16T02:04:58.096Z,93.00
2022-08-16T02:07:26.407Z,93.10
2022-08-16T02:09:56.998Z,93.60
2022-08-16T02:12:49.365Z,93.60
2022-08-16T02:15:25.558Z,93.90
2022-08-16T02:17:54.337Z,93.80
2022-08-16T02:20:26.076Z,93.70
2022-08-16T02:22:55.429Z,93.40
2022-08-16T02:25:24.612Z,92.90
2022-08-16T02:27:54.572Z,92.70
2022-08-16T02:30:37.564Z,92.30
2022-08-16T02:33:12.271Z,92.20
2022-08-16T02:35:49.789Z,91.80
2022-08-16T02:38:23.002Z,91.50
2022-08-16T02:40:54.409Z,91.40
2022-08-16T02:43:26.663Z,91.50
2022-08-16T02:45:55.322Z,91.50
2022-08-16T02:48:28.325Z,91.70
2022-08-16T02:51:06.256Z,91.70
2022-08-16T02:53:43.277Z,91.60
2022-08-16T02:56:12.034Z,91.80
2022-08-16T02:58:45.191Z,91.90
2022-08-16T03:01:25.258Z,92.20
2022-08-16T03:04:40.767Z,92.30
2022-08-16T03:06:56.310Z,92.50
2022-08-16T03:09:25.307Z,92.30
2022-08-16T03:11:57.043Z,92.40
2022-08-16T03:14:26.633Z,92.40
2022-08-16T03:16:59.343Z,92.40
2022-08-16T03:19:48.217Z,92.40
2022-08-16T03:22:19.342Z,92.80
2022-08-16T03:24:57.874Z,93.30
2022-08-16T03:27:30.690Z,93.60
2022-08-16T03:30:02.524Z,94.10
2022-08-16T03:32:45.368Z,94.50
2022-08-16T03:35:17.895Z,94.90
2022-08-16T03:38:03.072Z,95.20
2022-08-16T03:40:34.157Z,95.30
2022-08-16T03:43:20.715Z,95.00
2022-08-16T03:45:53.263Z,95.30
2022-08-16T03:48:36.155Z,95.50
2022-08-16T03:51:08.117Z,95.50
2022-08-16T03:53:38.459Z,95.50
2022-08-16T03:56:07.906Z,95.50
2022-08-16T03:58:50.992Z,95.50
2022-08-16T04:01:22.632Z,95.50
2022-08-16T04:03:51.348Z,95.50
2022-08-16T04:06:21.813Z,95.50
2022-08-16T04:08:49.915Z,95.50
2022-08-16T04:11:19.183Z,95.50
2022-08-16T04:13:58.907Z,95.50
2022-08-16T04:16:32.294Z,95.50
2022-08-16T04:19:04.615Z,95.50
2022-08-16T04:21:34.555Z,95.50
2022-08-16T04:24:03.648Z,95.50
2022-08-16T04:26:36.901Z,95.50
2022-08-16T04:29:16.414Z,95.30
2022-08-16T04:31:56.165Z,95.00
2022-08-16T04:34:27.380Z,94.30
2022-08-16T04:36:57.502Z,93.60
2022-08-16T04:39:45.880Z,93.20
2022-08-16T04:42:14.150Z,92.80
2022-08-16T04:44:54.293Z,92.60
2022-08-16T04:47:31.273Z,92.60
2022-08-16T04:50:00.043Z,92.40
2022-08-16T04:52:33.313Z,92.30
2022-08-16T04:55:06.113Z,92.10
2022-08-16T04:57:34.393Z,92.10
2022-08-16T05:00:30.712Z,92.00
2022-08-16T05:02:55.638Z,91.90
2022-08-16T05:05:24.879Z,91.60
2022-08-16T05:08:00.263Z,91.70
2022-08-16T05:10:29.827Z,91.70
2022-08-16T05:12:58.430Z,91.40
2022-08-16T05:15:27.354Z,91.30
2022-08-16T05:17:59.036Z,91.30
2022-08-16T05:20:45.147Z,91.30
2022-08-16T05:23:19.850Z,91.30
2022-08-16T05:25:49.275Z,91.00
2022-08-16T05:28:18.601Z,90.90
2022-08-16T05:30:50.454Z,91.00
2022-08-16T05:33:21.221Z,91.10
2022-08-16T05:35:54.541Z,90.90
2022-08-16T05:38:32.847Z,90.50
2022-08-16T05:41:09.531Z,90.10
2022-08-16T05:43:47.009Z,90.10
2022-08-16T05:46:28.720Z,90.00
2022-08-16T05:49:06.103Z,90.10
2022-08-16T05:51:38.480Z,90.00
2022-08-16T05:54:08.112Z,89.90
2022-08-16T05:56:38.283Z,89.40
2022-08-16T05:59:07.569Z,88.70
2022-08-16T06:01:38.735Z,89.10
2022-08-16T06:04:13.801Z,89.20
2022-08-16T06:06:57.901Z,89.20
2022-08-16T06:09:37.175Z,88.70
2022-08-16T06:12:12.814Z,88.70
2022-08-16T06:14:58.434Z,88.60
2022-08-16T06:17:43.344Z,87.60
2022-08-16T06:20:24.309Z,86.90
2022-08-16T06:23:03.579Z,85.80
2022-08-16T06:25:36.808Z,85.30
2022-08-16T06:28:16.991Z,85.20
2022-08-16T06:30:45.890Z,84.80
2022-08-16T06:33:19.741Z,84.40
2022-08-16T06:35:55.270Z,84.20
2022-08-16T06:38:33.587Z,84.00
2022-08-16T06:41:04.951Z,83.90
2022-08-16T06:43:34.892Z,84.20
2022-08-16T06:46:06.007Z,84.10
2022-08-16T06:48:42.955Z,84.10
2022-08-16T06:51:14.796Z,83.70
2022-08-16T06:53:42.993Z,81.80
2022-08-16T06:56:14.891Z,77.10
2022-08-16T06:58:51.516Z,72.40
2022-08-16T07:01:42.770Z,69.00
2022-08-16T07:04:12.173Z,67.30
2022-08-16T07:06:43.586Z,66.90
2022-08-16T07:09:15.886Z,64.80
2022-08-16T07:11:47.330Z,64.90
2022-08-16T07:14:25.732Z,64.90
2022-08-16T07:16:59.440Z,64.60
2022-08-16T07:19:48.343Z,63.80
2022-08-16T07:22:39.083Z,65.20
2022-08-16T07:25:10.695Z,64.00
2022-08-16T07:27:41.117Z,62.80
2022-08-16T07:30:39.396Z,63.30
2022-08-16T07:33:00.649Z,67.00
2022-08-16T07:35:28.758Z,64.80
2022-08-16T07:37:58.529Z,61.90
2022-08-16T07:40:58.019Z,62.60
2022-08-16T07:43:15.278Z,61.40
2022-08-16T07:45:43.759Z,60.10
2022-08-16T07:48:14.314Z,59.60
2022-08-16T07:50:56.393Z,59.90
2022-08-16T07:53:30.269Z,60.50
2022-08-16T07:56:00.521Z,61.70
2022-08-16T07:58:33.760Z,63.90
2022-08-16T08:01:10.018Z,63.90
2022-08-16T08:03:42.542Z,63.50
2022-08-16T08:06:13.360Z,62.80
2022-08-16T08:08:51.818Z,61.90
2022-08-16T08:11:23.659Z,59.50
2022-08-16T08:13:53.556Z,61.00
2022-08-16T08:16:30.390Z,64.80
2022-08-16T08:19:00.960Z,68.80
2022-08-16T08:21:59.452Z,71.10
2022-08-16T08:24:22.946Z,72.00
2022-08-16T08:27:02.123Z,73.00
2022-08-16T08:29:37.665Z,73.80
2022-08-16T08:32:57.821Z,71.60
2022-08-16T08:35:03.019Z,70.30
2022-08-16T08:37:53.924Z,71.90
2022-08-16T08:40:24.542Z,72.80
2022-08-16T08:43:00.310Z,73.20
2022-08-16T08:45:47.015Z,72.40
2022-08-16T08:48:34.085Z,72.80
2022-08-16T08:51:04.462Z,72.70
2022-08-16T08:53:33.739Z,70.80
2022-08-16T08:56:23.511Z,69.70
2022-08-16T08:58:58.176Z,69.80
2022-08-16T09:01:36.205Z,69.90
2022-08-16T09:04:05.893Z,67.40
2022-08-16T09:06:34.949Z,62.90
2022-08-16T09:09:03.365Z,59.90
2022-08-16T09:11:38.812Z,57.40
2022-08-16T09:14:23.899Z,56.30
2022-08-16T09:17:02.329Z,56.60
2022-08-16T09:19:33.809Z,55.30
2022-08-16T09:22:03.236Z,56.70
2022-08-16T09:24:52.572Z,57.90
2022-08-16T09:27:23.414Z,59.90
2022-08-16T09:29:59.943Z,62.70
2022-08-16T09:32:30.632Z,63.60
2022-08-16T09:34:59.559Z,61.00
2022-08-16T09:37:29.844Z,56.90
2022-08-16T09:39:59.676Z,56.80
2022-08-16T09:42:30.628Z,55.70
2022-08-16T09:45:18.850Z,54.70
2022-08-16T09:47:56.173Z,53.90
2022-08-16T09:50:36.720Z,56.20
2022-08-16T09:53:15.494Z,59.40
2022-08-16T09:55:49.576Z,62.10
2022-08-16T09:58:37.772Z,64.40
2022-08-16T10:01:11.265Z,65.70
2022-08-16T10:04:02.640Z,67.20
2022-08-16T10:06:33.492Z,68.00
2022-08-16T10:09:05.728Z,68.40
2022-08-16T10:11:52.719Z,68.50
2022-08-16T10:14:32.722Z,68.50
2022-08-16T10:17:03.171Z,68.60
2022-08-16T10:19:32.310Z,68.70
2022-08-16T10:22:05.083Z,68.80
2022-08-16T10:24:34.286Z,67.40
2022-08-16T10:27:25.246Z,68.20
2022-08-16T10:30:00.160Z,68.50
2022-08-16T10:32:32.235Z,67.90
2022-08-16T10:35:02.185Z,66.80
2022-08-16T10:37:36.300Z,64.40
2022-08-16T10:40:14.604Z,64.10
2022-08-16T10:42:55.501Z,63.30
2022-08-16T10:45:25.375Z,61.70
2022-08-16T10:48:02.738Z,61.40
2022-08-16T10:50:33.347Z,62.20
2022-08-16T10:53:07.580Z,62.50
2022-08-16T10:55:40.870Z,62.50
2022-08-16T10:58:17.409Z,62.50
2022-08-16T11:00:47.446Z,61.30
2022-08-16T11:06:07.224Z,57.40
2022-08-16T11:08:39.732Z,55.50
2022-08-16T11:11:18.554Z,54.10
2022-08-16T11:14:06.109Z,53.50
2022-08-16T11:19:26.229Z,53.10
2022-08-16T11:22:22.732Z,56.00
2022-08-16T11:24:44.979Z,56.70
2022-08-16T11:27:19.908Z,58.20
2022-08-16T11:29:50.024Z,58.00
2022-08-16T11:32:30.072Z,57.00
2022-08-16T11:35:10.336Z,57.40
2022-08-16T11:40:32.998Z,57.60
2022-08-16T11:43:04.565Z,58.90
2022-08-16T11:45:34.658Z,59.50
2022-08-16T11:48:06.036Z,58.60
2022-08-16T11:50:35.282Z,58.80
2022-08-16T11:53:04.948Z,59.20
2022-08-16T11:55:34.962Z,59.10
2022-08-16T11:58:07.711Z,57.60
2022-08-16T12:00:50.710Z,57.20
2022-08-16T12:03:31.464Z,56.50
2022-08-16T12:06:11.285Z,57.20
2022-08-16T12:08:57.482Z,56.40
2022-08-16T12:11:31.517Z,55.70
2022-08-16T12:14:00.734Z,56.70
2022-08-16T12:16:31.031Z,58.00
2022-08-16T12:19:00.728Z,58.10
2022-08-16T12:21:35.802Z,58.80
2022-08-16T12:24:16.731Z,57.70
2022-08-16T12:26:44.781Z,55.60
2022-08-16T12:29:13.113Z,53.70
2022-08-16T12:31:59.279Z,53.70
2022-08-16T12:34:30.838Z,54.70
2022-08-16T12:36:59.578Z,56.30
2022-08-16T12:39:29.201Z,57.40
2022-08-16T12:41:57.672Z,58.60
2022-08-16T12:44:26.569Z,58.90
2022-08-16T12:47:17.432Z,59.20
2022-08-16T12:49:47.076Z,59.80
2022-08-16T12:52:32.963Z,59.80
2022-08-16T12:55:02.194Z,61.00
2022-08-16T12:57:36.362Z,60.80
2022-08-16T13:00:08.096Z,60.60
2022-08-16T13:02:36.564Z,60.40
2022-08-16T13:05:08.131Z,59.00
2022-08-16T13:07:42.333Z,58.90
2022-08-16T13:10:21.502Z,58.70
2022-08-16T13:13:02.408Z,59.50
2022-08-16T13:15:31.919Z,60.20
2022-08-16T13:18:23.944Z,60.50
2022-08-16T13:20:54.409Z,59.20
2022-08-16T13:23:24.587Z,57.20
2022-08-16T13:25:54.840Z,55.00
2022-08-16T13:28:23.202Z,55.00
2022-08-16T13:30:54.183Z,54.30
2022-08-16T13:33:29.826Z,53.30
2022-08-16T13:36:01.316Z,53.10
2022-08-16T13:38:36.507Z,54.00
2022-08-16T13:41:05.974Z,54.00
2022-08-16T13:43:38.283Z,54.50
2022-08-16T13:46:06.988Z,55.00
2022-08-16T13:48:42.761Z,54.60
2022-08-16T13:51:17.478Z,53.50
2022-08-16T13:53:49.490Z,51.80
2022-08-16T13:56:22.216Z,51.00
2022-08-16T13:58:55.331Z,50.10
2022-08-16T14:01:24.592Z,49.50
2022-08-16T14:03:54.691Z,49.30
2022-08-16T14:06:25.318Z,49.30
2022-08-16T14:08:59.373Z,49.40
2022-08-16T14:11:34.629Z,50.70
2022-08-16T14:14:05.523Z,50.60
2022-08-16T14:16:35.019Z,50.10
2022-08-16T14:19:03.794Z,51.90
2022-08-16T14:21:35.462Z,50.90
2022-08-16T14:24:07.897Z,49.90
2022-08-16T14:26:50.322Z,50.10
2022-08-16T14:31:49.512Z,49.90
2022-08-16T14:34:21.564Z,49.70
2022-08-16T14:36:55.209Z,50.30
2022-08-16T14:39:23.390Z,50.80
2022-08-16T14:41:53.353Z,50.30
2022-08-16T14:44:21.845Z,49.80
2022-08-16T14:46:49.804Z,50.40
2022-08-16T14:49:20.825Z,50.80
2022-08-16T14:51:48.959Z,51.60
2022-08-16T14:54:18.383Z,51.20
2022-08-16T14:56:55.076Z,51.50
2022-08-16T14:59:23.700Z,51.30
2022-08-16T15:01:58.901Z,51.50
2022-08-16T15:04:39.533Z,52.70
2022-08-16T15:07:10.161Z,53.50
2022-08-16T15:09:44.092Z,53.70
2022-08-16T15:12:30.745Z,54.90
2022-08-16T15:15:01.204Z,54.60
2022-08-16T15:17:34.094Z,53.60
2022-08-16T15:20:08.710Z,52.50
2022-08-16T15:22:43.956Z,52.40
2022-08-16T15:25:17.650Z,51.50
2022-08-16T15:27:55.439Z,51.80
2022-08-16T15:30:57.014Z,53.20
2022-08-16T15:33:16.484Z,53.90
2022-08-16T15:35:46.183Z,55.10
2022-08-16T15:38:43.494Z,55.40
2022-08-16T15:41:05.397Z,55.10
2022-08-16T15:43:39.867Z,55.90
2022-08-16T15:46:34.989Z,56.90
2022-08-16T15:49:17.882Z,57.30
2022-08-16T15:51:46.671Z,57.60
2022-08-16T15:54:29.347Z,57.40
2022-08-16T15:57:10.867Z,57.50
2022-08-16T15:59:49.397Z,57.80
2022-08-16T16:02:29.106Z,58.20
2022-08-16T16:05:01.780Z,58.70
2022-08-16T16:07:33.492Z,58.80
2022-08-16T16:10:03.085Z,58.60
2022-08-16T16:12:51.261Z,57.70
2022-08-16T16:15:24.457Z,56.90
2022-08-16T16:17:53.087Z,55.80
2022-08-16T16:20:24.226Z,55.30
2022-08-16T16:22:57.129Z,54.70
2022-08-16T16:25:26.080Z,54.30
2022-08-16T16:27:59.928Z,54.30
2022-08-16T16:30:43.102Z,54.40
2022-08-16T16:33:20.670Z,54.00
2022-08-16T16:35:55.644Z,54.00
2022-08-16T16:38:30.428Z,54.40
2022-08-16T16:40:59.586Z,54.20
2022-08-16T16:43:31.183Z,54.80
2022-08-16T16:46:01.655Z,55.00
2022-08-16T16:48:35.023Z,54.80
2022-08-16T16:51:09.466Z,55.20
2022-08-16T16:53:42.067Z,55.50
2022-08-16T16:56:20.127Z,55.30
2022-08-16T16:59:00.987Z,55.20
2022-08-16T17:01:56.840Z,54.90
2022-08-16T17:04:32.494Z,55.40
2022-08-16T17:07:02.361Z,56.30
2022-08-16T17:09:31.060Z,56.10
2022-08-16T17:11:59.622Z,56.30
2022-08-16T17:14:33.292Z,57.10
2022-08-16T17:17:06.641Z,58.20
2022-08-16T17:19:40.825Z,58.50
2022-08-16T17:22:14.162Z,58.80
2022-08-16T17:24:45.613Z,59.10
2022-08-16T17:27:19.383Z,59.40
2022-08-16T17:30:16.293Z,59.90
2022-08-16T17:32:50.580Z,60.50
2022-08-16T17:35:33.928Z,60.50
2022-08-16T17:38:06.095Z,60.90
2022-08-16T17:40:47.935Z,60.80
2022-08-16T17:43:27.459Z,61.30
2022-08-16T17:45:57.273Z,61.40
2022-08-16T17:48:25.367Z,61.70
2022-08-16T17:50:54.791Z,61.80
2022-08-16T17:53:23.668Z,62.20
2022-08-16T17:55:54.345Z,62.50
2022-08-16T17:58:24.344Z,62.70
2022-08-16T18:00:54.848Z,62.80
2022-08-16T18:04:09.000Z,63.00
2022-08-16T18:06:18.374Z,63.10
2022-08-16T18:08:48.877Z,63.50
2022-08-16T18:11:25.838Z,63.60
2022-08-16T18:13:55.156Z,63.90
2022-08-16T18:16:23.707Z,64.20
2022-08-16T18:18:53.029Z,64.60
2022-08-16T18:21:38.293Z,64.90
2022-08-16T18:24:06.560Z,65.00
2022-08-16T18:26:34.695Z,65.30
2022-08-16T18:29:02.870Z,65.70
2022-08-16T18:31:30.977Z,66.20
2022-08-16T18:34:02.638Z,66.90
2022-08-16T18:36:30.897Z,66.70
2022-08-16T18:38:59.505Z,67.00
2022-08-16T18:41:28.998Z,67.20
2022-08-16T18:44:26.162Z,67.60
2022-08-16T18:46:50.730Z,68.10
2022-08-16T18:49:20.883Z,68.30
2022-08-16T18:51:50.655Z,68.30
2022-08-16T18:54:19.315Z,68.30
2022-08-16T18:56:55.105Z,68.60
2022-08-16T18:59:26.825Z,69.10
2022-08-16T19:01:55.541Z,69.70
2022-08-16T19:04:57.186Z,69.80
2022-08-16T19:07:18.841Z,70.20
2022-08-16T19:09:46.962Z,70.30
2022-08-16T19:12:15.923Z,70.40
2022-08-16T19:14:45.466Z,70.90
2022-08-16T19:17:13.595Z,71.30
2022-08-16T19:19:42.972Z,71.50
2022-08-16T19:22:10.992Z,72.00
2022-08-16T19:24:39.529Z,72.10
2022-08-16T19:27:12.794Z,72.40
2022-08-16T19:29:40.804Z,72.60
2022-08-16T19:32:17.417Z,73.10
2022-08-16T19:34:46.946Z,72.60
2022-08-16T19:37:15.195Z,72.60
2022-08-16T19:39:43.830Z,73.10
2022-08-16T19:42:14.316Z,73.70
2022-08-16T19:44:43.474Z,74.00
2022-08-16T19:47:11.709Z,74.40
2022-08-16T19:49:40.387Z,74.70
2022-08-16T19:52:15.576Z,74.90
2022-08-16T19:54:45.113Z,75.10
2022-08-16T19:57:14.010Z,75.60
2022-08-16T19:59:42.409Z,75.90
2022-08-16T20:02:35.550Z,76.30
2022-08-16T20:05:06.285Z,75.40
2022-08-16T20:07:35.752Z,74.90
2022-08-16T20:10:03.801Z,75.40
2022-08-16T20:12:31.758Z,75.70
2022-08-16T20:15:00.256Z,75.90
2022-08-16T20:17:28.252Z,75.70
2022-08-16T20:19:56.256Z,76.30
2022-08-16T20:22:51.993Z,76.80
2022-08-16T20:25:19.180Z,77.10
2022-08-16T20:27:56.811Z,77.40
2022-08-16T20:30:25.466Z,77.10
2022-08-16T20:32:54.163Z,76.80
2022-08-16T20:35:26.133Z,77.20
2022-08-16T20:37:54.353Z,77.40
2022-08-16T20:40:33.945Z,77.90
2022-08-16T20:43:06.873Z,78.00
2022-08-16T20:45:35.854Z,78.20
2022-08-16T20:48:04.450Z,78.00
2022-08-16T20:50:32.509Z,77.60
2022-08-16T20:53:00.536Z,78.20
2022-08-16T20:55:30.910Z,78.10
2022-08-16T20:57:58.874Z,78.50
2022-08-16T21:00:28.967Z,79.00
2022-08-16T21:02:57.155Z,79.20
2022-08-16T21:05:31.292Z,79.70
2022-08-16T21:08:01.162Z,79.90
2022-08-16T21:10:30.552Z,79.90
2022-08-16T21:13:02.667Z,80.00
2022-08-16T21:15:33.768Z,80.40
2022-08-16T21:18:02.436Z,80.80
2022-08-16T21:20:30.490Z,80.80
2022-08-16T21:23:00.980Z,80.60
2022-08-16T21:25:31.446Z,80.20
2022-08-16T21:28:36.871Z,80.00
2022-08-16T21:30:48.793Z,79.00
2022-08-16T21:33:19.322Z,79.30
2022-08-16T21:35:48.834Z,79.40
2022-08-16T21:38:29.068Z,79.80
2022-08-16T21:41:00.431Z,80.40
2022-08-16T21:43:32.012Z,80.80
2022-08-16T21:46:00.907Z,81.40
2022-08-16T21:48:33.975Z,81.70
2022-08-16T21:51:04.521Z,82.10
2022-08-16T21:53:32.853Z,81.80
2022-08-16T21:56:02.990Z,81.10
2022-08-16T21:58:31.981Z,81.50
2022-08-16T22:01:00.571Z,81.70
2022-08-16T22:03:30.042Z,81.70
2022-08-16T22:06:11.950Z,82.10
2022-08-16T22:08:46.806Z,82.40
2022-08-16T22:11:20.251Z,82.80
2022-08-16T22:13:57.284Z,83.10
2022-08-16T22:16:32.164Z,83.70
2022-08-16T22:19:00.378Z,84.20
2022-08-16T22:21:28.999Z,84.00
2022-08-16T22:23:58.790Z,83.40
2022-08-16T22:26:31.314Z,83.30
2022-08-16T22:29:01.188Z,83.30
2022-08-16T22:31:29.643Z,83.70
2022-08-16T22:33:57.946Z,83.90
2022-08-16T22:36:28.054Z,83.90
2022-08-16T22:38:58.811Z,84.30
2022-08-16T22:41:31.550Z,84.50
2022-08-16T22:44:00.336Z,85.20
2022-08-16T22:46:28.709Z,85.60
2022-08-16T22:48:56.708Z,85.80
2022-08-16T22:51:26.657Z,85.30
2022-08-16T22:53:55.797Z,85.30
2022-08-16T22:56:25.356Z,85.20
2022-08-16T22:58:54.823Z,85.00
2022-08-16T23:01:26.032Z,85.10
2022-08-16T23:03:55.593Z,85.10
2022-08-16T23:06:24.538Z,85.00
2022-08-16T23:08:53.188Z,84.90
2022-08-16T23:11:23.273Z,85.00
2022-08-16T23:13:55.577Z,85.00
2022-08-16T23:16:32.281Z,84.90
2022-08-16T23:19:02.480Z,85.20
2022-08-16T23:21:30.466Z,85.90
2022-08-16T23:23:58.469Z,85.80
2022-08-16T23:26:46.783Z,85.70
2022-08-16T23:29:24.832Z,85.40
2022-08-16T23:31:56.435Z,85.60
2022-08-16T23:34:24.985Z,85.40
2022-08-16T23:36:53.250Z,85.40
2022-08-16T23:39:21.275Z,85.90
2022-08-16T23:41:49.258Z,86.20
2022-08-16T23:44:42.363Z,86.60
2022-08-16T23:47:06.939Z,87.20
2022-08-16T23:49:58.781Z,87.20
2022-08-16T23:52:53.371Z,87.20
2022-08-16T23:55:11.285Z,87.20
2022-08-16T23:57:39.284Z,87.30
